ADDS METAR Data

Data at: 1833 UTC 20 Jul 2018

METAR for:CYCX (Gagetown (MIL), NB, CN)
Text:CYCX 201800Z 25005KT 180V270 15SM SKC 28/14 A3015 RMK DA1691FT SLP209
Temperature: 28.0°C ( 82°F)
Dewpoint: 14.0°C ( 57°F) [RH = 42%]
Pressure (altimeter):30.15 inches Hg (1021.1 mb) [Sea level pressure: 1020.9 mb]
Winds:from the WSW (250 degrees) at 6 MPH (5 knots; 2.6 m/s)
Visibility: 15 sm ( 24 km)
Ceiling:at least 12,000 feet AGL
Clouds:clear skies